Time;durP1;ratioP1;P1;durP2;ratioP2;P2;SDS_P1;SDS_P2;PMS_P1;PMS_P2;Temp;Humidity;BMP_temperature;BMP_pressure;BME280_temperature;BME280_humidity;BME280_pressure;Samples;Min_cycle;Max_cycle;Signal;HPM_P1;HPM_P2
2021/12/05 00:22:10;;;;;;;6.50;1.92;;;;;;;9.59;52.37;99535.34;5012943;28;20140;-73
2021/12/05 00:24:42;;;;;;;4.93;2.03;;;;;;;9.56;52.51;99539.16;5038301;28;20049;-74
2021/12/05 00:27:16;;;;;;;4.47;1.80;;;;;;;9.58;52.54;99536.31;5008606;28;20092;-73
2021/12/05 00:33:01;;;;;;;6.15;1.90;;;;;;;9.57;52.27;99535.47;5014973;28;20449;-73
2021/12/05 00:41:26;;;;;;;3.78;1.60;;;;;;;9.59;52.19;99538.06;5013912;28;20120;-72
2021/12/05 00:49:17;;;;;;;6.05;2.00;;;;;;;9.59;52.29;99541.63;5016582;28;20067;-73
2021/12/05 01:00:11;;;;;;;4.35;1.98;;;;;;;9.55;52.73;99540.19;5020708;28;20133;-73
2021/12/05 01:10:55;;;;;;;7.18;2.30;;;;;;;9.58;52.35;99547.16;5001040;28;20096;-72
2021/12/05 01:16:05;;;;;;;6.15;2.15;;;;;;;9.59;52.12;99557.88;4995826;28;20092;-72
2021/12/05 01:18:34;;;;;;;7.25;2.22;;;;;;;9.59;52.35;99563.31;4998859;28;20069;-72
2021/12/05 01:21:07;;;;;;;8.02;2.08;;;;;;;9.61;52.32;99564.03;5001328;28;20596;-74
2021/12/05 01:26:11;;;;;;;7.20;2.90;;;;;;;9.62;52.41;99567.63;4995892;28;20108;-73
2021/12/05 01:36:35;;;;;;;5.47;2.30;;;;;;;9.61;52.30;99571.31;4991450;28;20046;-72
2021/12/05 01:44:41;;;;;;;7.80;1.90;;;;;;;9.64;52.47;99584.59;4994127;28;20129;-71
2021/12/05 02:36:25;;;;;;;5.55;1.50;;;;;;;9.60;52.01;99585.84;4997712;28;20069;-73
2021/12/05 02:39:06;;;;;;;4.18;1.50;;;;;;;9.59;52.19;99584.13;4991814;28;20449;-71
2021/12/05 02:41:39;;;;;;;4.20;1.67;;;;;;;9.60;52.29;99586.69;5007731;28;20125;-74
2021/12/05 02:44:22;;;;;;;5.00;1.73;;;;;;;9.61;52.39;99580.31;5018378;28;20052;-72
2021/12/05 02:46:52;;;;;;;;;;;;;;;9.40;52.81;99582.06;5023145;28;20487;-73
2021/12/05 02:49:19;;;;;;;3.40;1.13;;;;;;;9.55;52.33;99573.53;5014542;28;20362;-72
2021/12/05 02:51:54;;;;;;;6.35;1.60;;;;;;;9.59;52.49;99574.13;5000781;28;20565;-72
2021/12/05 02:54:24;;;;;;;4.10;1.55;;;;;;;9.61;52.26;99577.59;5000909;28;20133;-72
2021/12/05 02:56:53;;;;;;;5.25;1.30;;;;;;;9.61;52.27;99574.00;5029133;28;20148;-72
2021/12/05 02:59:41;;;;;;;5.32;1.52;;;;;;;9.61;52.20;99568.59;5005623;28;20506;-72
2021/12/05 03:02:13;;;;;;;3.90;1.35;;;;;;;9.62;52.10;99568.47;5013517;28;20138;-73
2021/12/05 03:04:45;;;;;;;5.05;1.58;;;;;;;9.60;51.93;99575.00;5001753;28;20517;-72
2021/12/05 03:07:19;;;;;;;3.22;1.38;;;;;;;9.61;52.08;99569.47;5000386;28;20496;-72
2021/12/05 03:09:46;;;;;;;4.78;1.60;;;;;;;9.59;52.31;99560.59;4994894;28;20045;-72
2021/12/05 03:12:18;;;;;;;5.38;1.45;;;;;;;9.60;52.40;99566.88;5000096;28;20058;-74
2021/12/05 03:14:46;;;;;;;6.10;1.52;;;;;;;9.60;52.01;99561.44;5003118;28;20146;-72
2021/12/05 03:17:13;;;;;;;4.45;1.40;;;;;;;9.60;51.96;99556.91;4995862;28;20085;-72
2021/12/05 03:19:40;;;;;;;7.15;1.65;;;;;;;9.57;51.95;99559.84;5010649;28;20062;-73
2021/12/05 03:22:07;;;;;;;4.15;1.23;;;;;;;9.58;52.08;99560.72;5000211;28;20420;-72
2021/12/05 03:24:34;;;;;;;5.65;1.50;;;;;;;9.57;52.10;99557.13;5002017;28;20136;-73
2021/12/05 03:27:01;;;;;;;6.25;1.30;;;;;;;9.57;52.06;99554.44;5016849;28;20097;-74
2021/12/05 03:29:27;;;;;;;5.03;1.48;;;;;;;9.55;52.15;99549.13;4990982;28;20092;-72
2021/12/05 03:31:56;;;;;;;5.70;1.50;;;;;;;9.56;51.86;99541.88;5000390;28;20085;-72
2021/12/05 03:34:24;;;;;;;5.45;1.73;;;;;;;9.55;51.94;99554.56;4996743;28;20597;-73
2021/12/05 03:36:54;;;;;;;4.78;1.40;;;;;;;9.56;52.14;99552.72;5017652;28;20047;-72
2021/12/05 03:39:21;;;;;;;5.60;1.50;;;;;;;9.55;52.00;99559.97;4995777;28;20499;-74
2021/12/05 03:41:49;;;;;;;5.22;1.50;;;;;;;9.55;52.14;99554.56;4996747;28;20114;-72
2021/12/05 03:44:20;;;;;;;4.65;1.63;;;;;;;9.55;52.13;99559.97;5002334;28;20115;-73
2021/12/05 03:46:48;;;;;;;5.30;1.30;;;;;;;9.55;52.29;99549.13;5001591;28;20073;-72
2021/12/05 03:49:16;;;;;;;6.05;1.95;;;;;;;9.55;52.23;99553.72;4996386;28;20310;-73
2021/12/05 03:51:48;;;;;;;4.00;1.17;;;;;;;9.55;52.26;99546.44;5008924;28;20510;-71
2021/12/05 03:54:15;;;;;;;3.57;1.30;;;;;;;9.51;52.16;99553.09;4991613;28;20461;-73
2021/12/05 03:56:42;;;;;;;4.78;1.45;;;;;;;9.53;52.06;99550.28;5003597;28;20714;-73
2021/12/05 03:59:10;;;;;;;5.70;1.65;;;;;;;9.54;52.10;99541.16;5000682;28;20583;-72
2021/12/05 04:01:39;;;;;;;4.78;1.63;;;;;;;9.53;52.17;99545.72;4999176;28;20054;-74
2021/12/05 04:04:08;;;;;;;3.53;1.48;;;;;;;9.52;52.28;99544.00;4998209;28;20049;-72
2021/12/05 04:06:34;;;;;;;4.75;1.38;;;;;;;9.51;52.28;99544.13;4993786;28;20120;-72
2021/12/05 04:09:06;;;;;;;3.45;1.33;;;;;;;9.52;52.19;99545.84;4997670;28;20129;-72
2021/12/05 04:11:37;;;;;;;2.97;1.30;;;;;;;9.51;52.17;99544.13;5000941;28;20056;-72
2021/12/05 04:14:06;;;;;;;6.00;1.45;;;;;;;9.50;51.99;99539.69;4995107;28;20084;-74
2021/12/05 04:16:34;;;;;;;4.18;1.20;;;;;;;9.49;52.22;99536.09;5006837;28;20141;-72
2021/12/05 04:19:01;;;;;;;4.32;1.50;;;;;;;9.48;52.13;99542.50;4990138;28;20069;-74
2021/12/05 04:21:29;;;;;;;3.53;1.20;;;;;;;9.48;51.99;99541.66;4994526;28;20045;-72
2021/12/05 04:23:57;;;;;;;4.70;1.35;;;;;;;9.48;51.98;99538.94;4991859;28;20138;-72
2021/12/05 04:26:26;;;;;;;5.60;1.25;;;;;;;9.47;52.33;99542.66;5003781;28;20049;-72
2021/12/05 04:28:53;;;;;;;3.10;1.30;;;;;;;9.45;52.10;99552.75;4987360;28;20479;-74
2021/12/05 04:31:21;;;;;;;2.47;1.00;;;;;;;9.44;52.07;99546.47;4995438;28;20160;-73
2021/12/05 04:33:49;;;;;;;4.35;1.30;;;;;;;9.43;51.87;99549.31;4990605;28;20046;-72
2021/12/05 04:36:19;;;;;;;2.78;0.85;;;;;;;9.41;51.87;99544.00;4988750;28;20529;-72
2021/12/05 04:38:47;;;;;;;3.28;1.20;;;;;;;9.40;51.82;99550.41;5023814;28;20727;-72
2021/12/05 04:41:14;;;;;;;3.92;1.42;;;;;;;9.39;51.86;99545.13;5011631;28;20141;-75
2021/12/05 04:43:41;;;;;;;4.50;1.50;;;;;;;9.38;51.83;99548.84;5003925;28;20140;-72
2021/12/05 04:46:21;;;;;;;4.78;1.20;;;;;;;9.37;51.73;99542.56;5011591;28;20048;-74
2021/12/05 04:48:51;;;;;;;4.53;1.20;;;;;;;9.36;51.77;99545.41;5000902;28;20456;-74
2021/12/05 04:51:20;;;;;;;4.28;1.48;;;;;;;9.35;51.96;99540.97;5000625;28;20124;-74
2021/12/05 04:53:47;;;;;;;4.50;1.00;;;;;;;9.33;51.98;99541.06;4994114;28;20527;-73
2021/12/05 04:56:14;;;;;;;4.22;1.02;;;;;;;9.32;52.01;99539.34;5001125;28;20042;-73
2021/12/05 04:58:40;;;;;;;2.92;1.13;;;;;;;9.31;51.97;99536.75;5004237;28;20128;-72
2021/12/05 05:01:07;;;;;;;4.22;1.33;;;;;;;9.31;51.93;99534.06;4994482;28;20074;-71
2021/12/05 05:03:35;;;;;;;4.90;1.50;;;;;;;9.30;52.03;99532.38;5001326;28;20418;-74
2021/12/05 05:06:14;;;;;;;3.13;1.00;;;;;;;9.29;52.08;99526.09;4995836;28;20171;-71
2021/12/05 05:08:43;;;;;;;4.25;1.13;;;;;;;9.28;52.04;99521.66;5003166;28;20136;-72
2021/12/05 05:11:13;;;;;;;5.25;1.10;;;;;;;9.29;52.09;99534.22;4999037;28;20121;-72
2021/12/05 05:13:40;;;;;;;3.78;1.30;;;;;;;9.27;51.99;99528.06;5004500;28;20486;-72
2021/12/05 05:16:09;;;;;;;3.20;1.50;;;;;;;9.27;51.95;99538.88;5005320;28;20049;-75
2021/12/05 05:18:50;;;;;;;4.40;1.30;;;;;;;9.26;51.89;99533.59;5005991;28;20048;-75
2021/12/05 05:40:15;;;;;;;3.65;1.27;;;;;;;9.18;52.07;99565.84;5007250;28;20477;-74
2021/12/05 05:50:40;;;;;;;3.15;1.27;;;;;;;9.15;51.75;99575.06;5020327;28;20056;-75
2021/12/05 05:53:07;;;;;;;3.13;1.25;;;;;;;9.15;51.82;99585.91;5028410;28;20149;-72
2021/12/05 05:55:35;;;;;;;5.82;1.40;;;;;;;9.13;52.09;99580.66;5013903;28;20045;-73
2021/12/05 05:58:12;;;;;;;3.70;1.23;;;;;;;9.15;51.74;99588.63;5022962;28;20045;-72
2021/12/05 06:00:52;;;;;;;3.80;1.23;;;;;;;9.12;51.69;99576.22;5006089;28;20547;-73
2021/12/05 06:05:55;;;;;;;3.92;1.65;;;;;;;9.12;51.70;99580.75;5022407;28;20050;-74
2021/12/05 06:08:26;;;;;;;3.40;1.30;;;;;;;9.11;51.82;99579.03;5019256;28;20050;-74
2021/12/05 06:10:57;;;;;;;3.78;1.40;;;;;;;9.11;51.73;99577.19;4996562;28;20045;-73
2021/12/05 06:13:25;;;;;;;2.45;0.95;;;;;;;9.10;51.88;99578.16;4995774;28;20475;-72
2021/12/05 06:15:52;;;;;;;4.30;1.35;;;;;;;9.11;51.90;99584.44;5009711;28;20073;-73
2021/12/05 06:18:19;;;;;;;3.50;1.23;;;;;;;9.10;51.86;99580.88;4997833;28;20518;-73
2021/12/05 06:20:46;;;;;;;3.75;1.50;;;;;;;9.11;52.08;99579.03;4989653;28;20069;-72
2021/12/05 06:23:13;;;;;;;3.30;1.10;;;;;;;9.11;51.97;99581.75;5003789;28;20050;-73
2021/12/05 06:25:44;;;;;;;4.25;1.15;;;;;;;9.11;51.87;99585.31;5006447;28;20080;-73
2021/12/05 06:28:13;;;;;;;1.98;1.02;;;;;;;9.10;51.87;99593.56;4992662;28;20124;-75
2021/12/05 06:30:51;;;;;;;2.90;1.00;;;;;;;9.13;51.68;99601.44;4995475;28;20069;-73
2021/12/05 06:39:18;;;;;;;3.45;1.20;;;;;;;9.08;51.95;99596.38;5015322;28;20048;-72
2021/12/05 06:47:09;;;;;;;3.35;1.13;;;;;;;9.08;51.94;99599.09;5008831;28;20081;-73
2021/12/05 06:49:37;;;;;;;3.97;1.50;;;;;;;9.09;51.69;99602.66;5018969;28;20434;-76
2021/12/05 06:52:04;;;;;;;4.57;1.40;;;;;;;9.09;51.76;99608.94;5010597;28;20121;-73
2021/12/05 06:54:31;;;;;;;3.63;1.25;;;;;;;9.09;51.74;99610.78;5015675;28;20641;-73
2021/12/05 06:56:57;;;;;;;2.65;1.05;;;;;;;9.09;51.84;99611.66;5012598;28;20136;-73
2021/12/05 06:59:24;;;;;;;5.20;1.40;;;;;;;9.11;51.92;99616.94;5011751;28;20125;-72
2021/12/05 07:01:51;;;;;;;3.80;1.00;;;;;;;9.11;51.90;99616.94;5007149;28;20145;-74
2021/12/05 07:07:04;;;;;;;5.07;1.30;;;;;;;9.14;52.19;99638.38;5014655;28;20574;-71
2021/12/05 07:09:31;;;;;;;4.55;1.30;;;;;;;9.14;51.98;99627.53;5007975;28;20045;-70
2021/12/05 07:13:06;;;;;;;5.90;1.58;;;;;;;9.15;52.47;99627.38;5006571;28;20050;-73
2021/12/05 07:14:51;;;;;;;5.28;1.50;;;;;;;9.16;51.91;99642.66;5008061;28;20146;-72
2021/12/05 07:20:23;;;;;;;3.03;1.20;;;;;;;9.20;51.86;99629.75;5043478;28;20570;-72
2021/12/05 07:26:09;;;;;;;4.28;1.60;;;;;;;9.17;51.96;99638.09;5046615;28;20121;-72
2021/12/05 07:42:10;;;;;;;5.30;2.00;;;;;;;9.16;51.92;99648.06;5065630;28;20129;-70
2021/12/05 07:44:37;;;;;;;5.47;1.80;;;;;;;9.16;51.97;99648.06;5066507;28;20079;-70
2021/12/05 07:47:07;;;;;;;3.55;1.65;;;;;;;9.16;51.73;99647.22;5056256;28;20045;-71
2021/12/05 07:49:34;;;;;;;4.63;1.80;;;;;;;9.16;51.96;99653.50;5063788;28;20071;-71
2021/12/05 07:52:01;;;;;;;4.63;1.35;;;;;;;9.17;51.93;99657.06;5066513;28;20080;-73
2021/12/05 07:54:51;;;;;;;4.50;1.40;;;;;;;9.17;51.73;99659.75;5063518;28;20609;-72
2021/12/05 07:57:25;;;;;;;4.78;1.55;;;;;;;9.15;51.75;99657.16;5057034;28;20189;-71
2021/12/05 08:16:19;;;;;;;2.63;1.27;;;;;;;9.09;51.49;99681.19;5074230;28;20078;-72
2021/12/05 08:18:46;;;;;;;3.00;1.58;;;;;;;9.09;51.57;99679.34;5057657;28;20049;-72
2021/12/05 08:21:13;;;;;;;6.47;1.90;;;;;;;9.10;51.79;99680.19;5070677;28;20036;-71
2021/12/05 08:23:39;;;;;;;4.03;1.70;;;;;;;9.11;51.99;99690.91;5049269;28;20084;-72
2021/12/05 08:26:10;;;;;;;4.30;2.00;;;;;;;9.14;51.90;99690.66;5047848;28;20071;-74
2021/12/05 09:26:04;;;;;;;3.63;1.83;;;;;;;9.39;52.64;99742.84;5074525;28;20048;-75
2021/12/05 09:29:05;;;;;;;4.22;1.65;;;;;;;9.41;52.47;99749.88;5053783;28;20051;-72
2021/12/05 09:51:18;;;;;;;3.50;1.85;;;;;;;9.46;52.37;99782.91;5057417;28;20064;-70
2021/12/05 10:07:26;;;;;;;3.30;1.60;;;;;;;9.50;52.55;99792.50;5071133;28;20411;-70
2021/12/05 10:38:31;;;;;;;3.85;1.80;;;;;;;9.54;52.68;99802.13;5075426;28;20132;-72
2021/12/05 10:42:11;;;;;;;2.70;1.30;;;;;;;9.58;52.72;99801.88;5077267;28;20040;-72
2021/12/05 10:43:56;;;;;;;2.90;1.40;;;;;;;9.57;52.68;99803.72;5061213;28;20448;-73
2021/12/05 10:46:24;;;;;;;3.60;1.40;;;;;;;9.61;52.65;99812.47;5066365;28;20118;-72
2021/12/05 10:48:57;;;;;;;2.92;1.55;;;;;;;9.62;52.79;99806.94;5073806;28;20040;-73
2021/12/05 10:51:30;;;;;;;4.47;1.40;;;;;;;9.65;52.67;99816.66;5068150;28;20032;-71
2021/12/05 10:54:02;;;;;;;3.00;1.23;;;;;;;9.65;52.72;99813.94;5057278;28;20131;-73
2021/12/05 10:56:38;;;;;;;4.23;1.50;;;;;;;9.66;52.62;99803.00;5055677;28;20075;-73
2021/12/05 10:59:16;;;;;;;3.03;1.30;;;;;;;9.71;52.89;99808.06;5071644;28;20295;-72
2021/12/05 11:01:48;;;;;;;3.05;1.50;;;;;;;9.68;52.74;99809.16;5064029;28;20082;-72
2021/12/05 11:04:34;;;;;;;2.25;1.40;;;;;;;9.71;52.55;99806.22;5063565;28;20075;-74
2021/12/05 11:07:04;;;;;;;3.53;1.60;;;;;;;9.71;52.76;99811.63;5078096;28;20115;-72
2021/12/05 11:09:34;;;;;;;2.42;1.30;;;;;;;9.73;52.57;99815.06;5063420;28;20592;-74
2021/12/05 11:12:19;;;;;;;2.25;1.27;;;;;;;9.75;52.62;99813.09;5050926;28;20146;-71
2021/12/05 11:14:52;;;;;;;3.75;1.60;;;;;;;9.75;52.58;99813.09;5065745;28;20575;-71
2021/12/05 11:17:24;;;;;;;3.00;1.48;;;;;;;9.76;52.68;99813.97;5059579;28;20049;-72
2021/12/05 11:19:53;;;;;;;2.25;1.27;;;;;;;9.77;52.60;99812.97;5049610;28;20109;-75
2021/12/05 11:22:33;;;;;;;3.22;1.45;;;;;;;9.82;52.49;99813.47;5055877;28;20510;-73
2021/12/05 11:25:04;;;;;;;3.10;1.30;;;;;;;9.82;52.50;99818.88;5064539;28;20053;-74
2021/12/05 11:27:51;;;;;;;2.60;1.23;;;;;;;9.85;52.30;99819.50;5082180;28;20053;-74
2021/12/05 11:30:22;;;;;;;2.40;1.40;;;;;;;9.84;52.55;99815.06;5058146;28;20068;-74
2021/12/05 11:33:18;;;;;;;2.38;1.40;;;;;;;9.86;52.37;99812.25;5042700;28;20157;-71
2021/12/05 11:35:49;;;;;;;2.72;1.40;;;;;;;9.87;52.40;99814.84;5060575;28;20464;-72
2021/12/05 11:38:34;;;;;;;2.92;1.30;;;;;;;9.89;52.34;99817.41;5059854;28;20045;-73
2021/12/05 11:41:11;;;;;;;2.38;1.10;;;;;;;9.91;52.47;99815.44;5060344;28;20490;-72
2021/12/05 11:43:44;;;;;;;2.28;1.38;;;;;;;9.90;52.58;99820.00;5064439;28;20614;-70
2021/12/05 11:46:13;;;;;;;;;;;;;;;9.71;52.92;99822.47;5060621;28;20068;-71
2021/12/05 11:48:45;;;;;;;2.53;1.40;;;;;;;9.92;52.50;99819.88;5066914;28;19931;-71
2021/12/05 11:51:23;;;;;;;2.35;1.10;;;;;;;9.96;52.59;99821.38;5059653;28;20151;-73
2021/12/05 11:53:49;;;;;;;3.17;1.10;;;;;;;9.95;52.59;99822.34;5054242;28;20087;-71
2021/12/05 11:56:43;;;;;;;2.10;1.10;;;;;;;9.98;52.38;99832.94;5042381;28;20059;-70
2021/12/05 11:59:18;;;;;;;1.90;1.10;;;;;;;9.99;52.20;99829.22;5058727;28;20128;-70
2021/12/05 12:01:57;;;;;;;3.00;1.20;;;;;;;10.01;52.29;99823.69;5081743;28;20075;-70
2021/12/05 12:04:45;;;;;;;1.58;1.08;;;;;;;10.02;52.35;99833.56;5076934;28;20047;-70
2021/12/05 12:07:20;;;;;;;2.17;1.20;;;;;;;10.04;52.23;99837.03;5066541;28;20056;-70
2021/12/05 12:09:49;;;;;;;3.13;1.33;;;;;;;10.04;52.32;99834.31;5063694;28;20071;-69
2021/12/05 12:12:17;;;;;;;4.72;1.40;;;;;;;10.04;52.52;99827.03;5057784;28;20128;-70
2021/12/05 12:14:45;;;;;;;2.35;1.40;;;;;;;10.07;52.44;99834.91;5074779;28;20049;-70
2021/12/05 12:17:16;;;;;;;2.90;1.45;;;;;;;10.06;52.39;99835.88;5056547;28;20565;-70
2021/12/05 12:19:52;;;;;;;2.58;1.50;;;;;;;10.11;52.16;99838.25;5047215;28;20132;-70
2021/12/05 12:22:21;;;;;;;2.58;1.30;;;;;;;10.11;52.60;99840.94;5056128;28;20463;-70
2021/12/05 12:25:00;;;;;;;2.50;1.23;;;;;;;10.13;52.34;99837.09;5052254;28;20080;-70
2021/12/05 12:27:30;;;;;;;2.47;1.27;;;;;;;10.14;52.43;99833.41;5071016;28;20052;-69
2021/12/05 12:29:59;;;;;;;2.17;1.20;;;;;;;10.17;52.42;99840.44;5047235;28;20127;-70
2021/12/05 12:32:32;;;;;;;3.92;1.55;;;;;;;10.20;52.19;99842.97;5073843;28;20048;-70
2021/12/05 12:35:13;;;;;;;2.80;1.45;;;;;;;10.22;52.20;99838.25;5056746;28;20099;-69
2021/12/05 12:37:57;;;;;;;3.10;1.33;;;;;;;10.23;52.07;99848.97;5062817;28;20068;-70
2021/12/05 12:40:44;;;;;;;2.00;1.10;;;;;;;10.24;51.90;99842.56;5054078;28;20048;-70
2021/12/05 12:43:40;;;;;;;2.40;1.30;;;;;;;10.23;51.82;99850.81;5065378;28;20084;-70
2021/12/05 12:46:44;;;;;;;2.65;1.20;;;;;;;10.24;51.92;99849.84;5065489;28;20049;-70
2021/12/05 12:49:16;;;;;;;2.35;1.20;;;;;;;10.23;52.13;99851.69;5066053;28;20090;-70
2021/12/05 12:51:46;;;;;;;2.92;1.52;;;;;;;10.22;51.99;99855.38;5053799;28;20112;-71
2021/12/05 12:54:17;;;;;;;2.58;1.23;;;;;;;10.25;52.06;99852.44;5059392;28;20552;-74
2021/12/05 12:57:12;;;;;;;2.65;1.45;;;;;;;10.25;51.72;99857.84;5036657;28;20048;-71
2021/12/05 12:59:56;;;;;;;2.65;1.38;;;;;;;10.26;51.96;99864.16;5078727;28;20113;-71
2021/12/05 13:03:27;;;;;;;2.45;1.40;;;;;;;10.26;51.52;99864.16;5080768;28;20119;-72
2021/12/05 13:11:16;;;;;;;2.90;1.23;;;;;;;10.24;51.71;99861.56;5058888;28;20115;-72
2021/12/05 13:13:45;;;;;;;2.10;1.13;;;;;;;10.24;51.88;99869.69;5052326;28;20068;-71
2021/12/05 13:16:20;;;;;;;2.85;1.40;;;;;;;10.27;51.75;99876.72;5059878;28;20076;-72
2021/12/05 13:18:56;;;;;;;2.70;1.20;;;;;;;10.26;51.74;99877.72;5053874;28;20052;-71
2021/12/05 13:21:36;;;;;;;2.40;1.20;;;;;;;10.26;51.24;99873.16;5072285;28;20580;-72
2021/12/05 13:24:27;;;;;;;3.05;1.55;;;;;;;10.24;51.40;99875.13;5078483;28;20131;-71
2021/12/05 13:27:03;;;;;;;2.97;1.30;;;;;;;10.25;51.56;99881.41;5068039;28;20102;-71
2021/12/05 13:29:34;;;;;;;2.67;1.55;;;;;;;10.25;51.42;99882.28;5059357;28;20040;-71
2021/12/05 13:32:16;;;;;;;2.55;1.38;;;;;;;10.26;51.38;99888.56;5060811;28;20072;-71
2021/12/05 13:34:46;;;;;;;2.75;1.30;;;;;;;10.24;51.70;99887.81;5044185;28;20068;-72
2021/12/05 13:37:13;;;;;;;2.88;1.52;;;;;;;10.21;51.48;99891.63;5067030;28;20056;-73
2021/12/05 13:39:47;;;;;;;2.13;1.30;;;;;;;10.23;51.52;99891.50;5064312;28;20063;-73
2021/12/05 13:42:22;;;;;;;2.92;1.60;;;;;;;10.20;51.84;99895.34;5054395;28;20067;-74
2021/12/05 13:45:04;;;;;;;2.72;1.40;;;;;;;10.22;51.46;99897.91;5065237;28;20098;-72
2021/12/05 13:47:51;;;;;;;4.18;1.52;;;;;;;10.20;51.49;99899.91;5040883;28;20110;-73
2021/12/05 13:50:21;;;;;;;2.30;1.35;;;;;;;10.17;51.76;99898.31;5054872;28;20482;-71
2021/12/05 13:52:57;;;;;;;2.92;1.38;;;;;;;10.19;51.95;99906.31;5067170;28;20076;-71
2021/12/05 13:55:39;;;;;;;3.83;1.42;;;;;;;10.21;51.50;99905.19;5063249;28;20143;-71
2021/12/05 13:58:28;;;;;;;3.30;1.70;;;;;;;10.19;51.31;99907.19;5048893;28;20076;-72
2021/12/05 14:00:55;;;;;;;2.20;1.30;;;;;;;10.19;51.96;99903.63;5061046;28;20063;-71
2021/12/05 14:03:44;;;;;;;2.67;1.45;;;;;;;10.21;51.51;99907.91;5059115;28;20048;-72
2021/12/05 14:06:32;;;;;;;2.10;1.30;;;;;;;10.23;51.56;99914.06;5064020;28;20040;-73
2021/12/05 14:09:12;;;;;;;2.42;1.20;;;;;;;10.25;51.49;99909.41;5059879;28;20067;-72
2021/12/05 14:12:02;;;;;;;2.38;1.20;;;;;;;10.27;51.46;99917.41;5062249;28;20084;-72
2021/12/05 14:14:49;;;;;;;2.47;1.20;;;;;;;10.26;51.40;99923.84;5088109;28;20122;-70
2021/12/05 14:17:19;;;;;;;1.95;1.05;;;;;;;10.27;51.81;99937.28;5069192;28;20075;-72
2021/12/05 14:19:50;;;;;;;2.42;1.30;;;;;;;10.29;51.87;99937.16;5076355;28;20135;-70
2021/12/05 14:22:19;;;;;;;3.88;1.52;;;;;;;10.30;51.50;99941.56;5057666;28;20048;-71
2021/12/05 14:24:51;;;;;;;3.00;1.50;;;;;;;10.33;51.17;99943.19;5065319;28;20068;-71
2021/12/05 14:27:22;;;;;;;2.83;1.60;;;;;;;10.29;51.31;99946.13;5078497;28;20040;-70
2021/12/05 14:29:50;;;;;;;2.08;1.30;;;;;;;10.30;51.69;99949.72;5064481;28;20140;-70
2021/12/05 14:32:26;;;;;;;3.10;1.60;;;;;;;10.32;51.34;99957.72;5068950;28;20465;-72
2021/12/05 14:34:57;;;;;;;2.90;1.58;;;;;;;10.32;51.40;99960.44;5054377;28;22274;-71
2021/12/05 14:37:27;;;;;;;2.80;1.50;;;;;;;10.30;51.61;99968.69;5065787;28;20041;-71
2021/12/05 14:39:59;;;;;;;3.53;1.58;;;;;;;10.32;51.52;99974.88;5064011;28;20098;-74
2021/12/05 14:42:28;;;;;;;3.70;1.77;;;;;;;10.32;51.47;99964.03;5069353;28;20045;-72
2021/12/05 14:45:00;;;;;;;3.13;1.50;;;;;;;10.35;51.37;99980.06;5084957;28;20048;-72
2021/12/05 14:47:33;;;;;;;3.33;1.80;;;;;;;10.36;51.54;99986.38;5071512;28;20048;-72
2021/12/05 14:50:08;;;;;;;2.05;1.30;;;;;;;10.37;51.24;99988.09;5069058;28;20202;-73
2021/12/05 14:52:38;;;;;;;2.50;1.50;;;;;;;10.39;51.52;99991.53;5066965;28;20123;-72
2021/12/05 14:55:08;;;;;;;3.03;1.38;;;;;;;10.40;51.39;99996.84;5058683;28;20044;-72
2021/12/05 14:57:41;;;;;;;3.20;1.60;;;;;;;10.42;51.43;99994.00;5063003;28;20124;-71
2021/12/05 15:00:16;;;;;;;2.53;1.20;;;;;;;10.42;50.96;99999.44;5061277;28;20143;-71
2021/12/05 15:02:42;;;;;;;3.30;1.50;;;;;;;10.40;51.53;99994.13;5075361;28;20048;-72
2021/12/05 15:05:12;;;;;;;2.60;1.33;;;;;;;10.42;51.33;99997.59;5063457;28;20418;-72
2021/12/05 15:07:39;;;;;;;2.72;1.42;;;;;;;10.41;51.42;100003.13;5048202;28;20099;-72
2021/12/05 15:10:07;;;;;;;2.75;1.63;;;;;;;10.41;51.20;100012.13;5058608;28;20123;-73
2021/12/05 15:12:35;;;;;;;2.97;1.45;;;;;;;10.41;51.30;100017.56;5065896;28;20044;-72
2021/12/05 15:15:10;;;;;;;3.22;1.70;;;;;;;10.43;51.13;100007.47;5081180;28;20075;-73
2021/12/05 15:17:42;;;;;;;3.72;1.77;;;;;;;10.42;50.85;100011.16;5057820;28;20127;-74
2021/12/05 15:20:14;;;;;;;2.70;1.45;;;;;;;10.39;51.36;100005.97;5053039;28;20049;-72
2021/12/05 15:22:45;;;;;;;2.97;1.58;;;;;;;10.40;51.13;100007.69;5065833;28;20649;-72
2021/12/05 15:25:17;;;;;;;3.38;1.60;;;;;;;10.41;51.34;100013.97;5069800;28;20584;-73
2021/12/05 15:27:45;;;;;;;3.27;1.87;;;;;;;10.39;51.23;100021.38;5076394;28;20045;-72
2021/12/05 15:30:18;;;;;;;3.65;1.92;;;;;;;10.42;50.96;100029.28;5058444;28;20140;-73
2021/12/05 15:32:50;;;;;;;3.53;1.85;;;;;;;10.41;51.42;100033.84;5055870;28;20555;-71
2021/12/05 15:35:18;;;;;;;2.83;1.80;;;;;;;10.42;51.25;100037.41;5065630;28;20049;-72
2021/12/05 15:38:06;;;;;;;2.92;1.48;;;;;;;10.43;51.28;100036.44;5055114;28;20052;-72
2021/12/05 15:40:35;;;;;;;3.92;1.80;;;;;;;10.42;51.48;100048.28;5053986;28;20040;-72
2021/12/05 15:43:07;;;;;;;3.78;1.70;;;;;;;10.44;51.11;100046.31;5068105;28;20044;-72
2021/12/05 15:45:34;;;;;;;3.28;1.70;;;;;;;10.43;51.37;100055.44;5046828;28;20041;-72
2021/12/05 15:48:01;;;;;;;3.28;1.75;;;;;;;10.42;51.34;100064.56;5060818;28;20106;-72
2021/12/05 15:50:34;;;;;;;2.92;1.65;;;;;;;10.46;51.23;100072.31;5074030;28;20068;-72
2021/12/05 15:53:06;;;;;;;3.67;1.90;;;;;;;10.43;51.35;100066.28;5054587;28;20508;-72
2021/12/05 15:55:36;;;;;;;3.72;1.90;;;;;;;10.43;51.20;100075.28;5038040;28;20069;-71
2021/12/05 15:58:08;;;;;;;4.28;2.33;;;;;;;10.42;51.09;100078.13;5060109;28;20084;-73
2021/12/05 16:00:41;;;;;;;2.60;1.48;;;;;;;10.42;51.05;100080.84;5045572;28;20095;-72
2021/12/05 16:03:12;;;;;;;;;;;;;;;10.18;51.22;100084.50;5053448;28;20042;-71
2021/12/05 16:05:41;;;;;;;3.22;1.65;;;;;;;10.34;51.35;100086.88;5042332;28;19928;-72
2021/12/05 16:08:09;;;;;;;3.80;2.20;;;;;;;10.37;51.16;100099.34;5067087;28;20127;-72
2021/12/05 16:10:40;;;;;;;4.05;2.13;;;;;;;10.39;51.17;100102.78;5058093;28;20136;-71
2021/12/05 16:13:13;;;;;;;4.32;2.00;;;;;;;10.39;51.26;100098.22;5048910;28;20087;-72
2021/12/05 16:15:43;;;;;;;4.78;1.90;;;;;;;10.38;51.21;100103.78;5043738;28;20052;-74
2021/12/05 16:18:10;;;;;;;4.95;2.10;;;;;;;10.37;51.39;100108.34;5057520;28;20147;-72
2021/12/05 16:20:40;;;;;;;3.53;2.10;;;;;;;10.40;51.25;100107.22;5031686;28;20065;-73
2021/12/05 16:23:12;;;;;;;4.70;2.38;;;;;;;10.40;51.39;100110.81;5046245;28;20045;-72
2021/12/05 16:25:46;;;;;;;3.45;2.28;;;;;;;10.42;51.28;100116.13;5060479;28;20414;-73
2021/12/05 16:28:14;;;;;;;4.18;1.90;;;;;;;10.42;51.44;100116.13;5042327;28;20474;-71
2021/12/05 16:30:55;;;;;;;4.22;2.10;;;;;;;10.44;51.05;100115.03;5065397;28;20094;-73
2021/12/05 16:33:22;;;;;;;3.70;2.20;;;;;;;10.42;51.18;100124.25;5075547;28;20147;-74
2021/12/05 16:35:51;;;;;;;4.00;2.42;;;;;;;10.44;51.41;100134.00;5053173;28;20072;-73
2021/12/05 16:38:32;;;;;;;3.90;2.03;;;;;;;10.45;50.87;100137.59;5076526;28;20054;-73
2021/12/05 16:41:02;;;;;;;3.45;2.00;;;;;;;10.44;51.04;100141.28;5058466;28;20536;-74
2021/12/05 16:43:31;;;;;;;3.80;1.90;;;;;;;10.43;51.04;100145.84;5057539;28;20146;-72
2021/12/05 16:46:15;;;;;;;4.25;1.98;;;;;;;10.44;50.91;100152.16;5065213;28;20052;-73
2021/12/05 16:48:44;;;;;;;3.63;2.00;;;;;;;10.43;51.56;100158.56;5065649;28;20058;-73
2021/12/05 16:51:35;;;;;;;3.50;1.75;;;;;;;10.44;50.99;100157.56;5044633;28;20068;-72
2021/12/05 16:54:13;;;;;;;3.72;2.20;;;;;;;10.43;50.99;100156.72;5060013;28;20835;-75
2021/12/05 16:57:10;;;;;;;4.00;1.80;;;;;;;10.43;50.96;100173.00;5046686;28;20103;-72
2021/12/05 16:59:37;;;;;;;4.65;2.05;;;;;;;10.41;50.96;100174.94;5047315;28;20064;-72
2021/12/05 17:02:27;;;;;;;3.33;2.15;;;;;;;10.46;51.12;100177.31;5080276;28;20101;-71
2021/12/05 17:05:20;;;;;;;3.90;2.10;;;;;;;10.44;50.88;100188.28;5065904;28;20072;-72
2021/12/05 17:10:59;;;;;;;3.58;2.22;;;;;;;10.42;51.01;100183.97;5061620;28;20057;-73
2021/12/05 17:13:26;;;;;;;4.25;2.15;;;;;;;10.37;51.05;100195.19;5066164;28;20040;-72
2021/12/05 17:16:03;;;;;;;3.90;2.00;;;;;;;10.39;50.79;100206.75;5087235;28;20531;-72
2021/12/05 17:18:35;;;;;;;3.30;1.90;;;;;;;10.38;51.13;100201.47;5071891;28;20045;-73
2021/12/05 17:21:04;;;;;;;3.30;2.20;;;;;;;10.38;51.13;100212.31;5056540;28;20045;-73
2021/12/05 17:23:35;;;;;;;4.40;2.20;;;;;;;10.38;51.28;100217.75;5075272;28;20068;-72
2021/12/05 17:26:27;;;;;;;3.63;2.20;;;;;;;10.39;51.59;100222.16;5071944;28;20520;-73
2021/12/05 17:29:02;;;;;;;4.30;2.40;;;;;;;10.39;51.51;100222.16;5062877;28;20064;-72
2021/12/05 17:31:57;;;;;;;4.75;2.25;;;;;;;10.38;51.56;100218.59;5046972;28;20164;-71